createdAt,value
2022-10-23T00:01:05.562Z,2.43
2022-10-23T00:03:37.537Z,3.50
2022-10-23T00:06:09.375Z,2.87
2022-10-23T00:08:41.156Z,2.80
2022-10-23T00:11:12.980Z,2.57
2022-10-23T00:13:44.785Z,3.43
2022-10-23T00:16:16.612Z,3.20
2022-10-23T00:18:48.445Z,2.70
2022-10-23T00:21:20.280Z,3.10
2022-10-23T00:23:52.111Z,2.43
2022-10-23T00:26:23.957Z,3.20
2022-10-23T00:28:55.816Z,2.80
2022-10-23T00:31:27.636Z,3.03
2022-10-23T00:33:59.496Z,3.27
2022-10-23T00:36:31.378Z,3.57
2022-10-23T00:39:03.231Z,2.33
2022-10-23T00:41:35.056Z,2.63
2022-10-23T00:44:06.866Z,2.63
2022-10-23T00:46:38.662Z,2.63
2022-10-23T00:49:10.484Z,2.70
2022-10-23T00:51:42.343Z,3.60
2022-10-23T00:54:29.671Z,2.90
2022-10-23T00:56:47.759Z,3.00
2022-10-23T00:59:20.802Z,3.93
2022-10-23T01:01:52.733Z,2.80
2022-10-23T01:04:24.721Z,2.60
2022-10-23T01:06:56.695Z,2.83
2022-10-23T01:09:29.190Z,2.60
2022-10-23T01:12:01.206Z,4.00
2022-10-23T01:14:33.276Z,2.57
2022-10-23T01:17:05.296Z,3.00
2022-10-23T01:19:38.838Z,2.73
2022-10-23T01:22:10.652Z,2.53
2022-10-23T01:24:42.956Z,2.60
2022-10-23T01:27:14.783Z,3.07
2022-10-23T01:29:46.852Z,2.60
2022-10-23T01:32:18.710Z,2.90
2022-10-23T01:34:50.542Z,2.30
2022-10-23T01:37:22.427Z,2.53
2022-10-23T01:39:54.416Z,3.13
2022-10-23T01:42:26.604Z,2.70
2022-10-23T01:44:58.433Z,3.40
2022-10-23T01:47:30.338Z,3.27
2022-10-23T01:50:03.951Z,2.30
2022-10-23T01:52:35.732Z,2.70
2022-10-23T01:55:09.041Z,2.47
2022-10-23T01:57:41.364Z,2.17
2022-10-23T02:00:14.492Z,3.10
2022-10-23T02:02:57.901Z,2.97
2022-10-23T02:05:31.450Z,2.73
2022-10-23T02:08:03.368Z,2.50
2022-10-23T02:10:35.264Z,3.00
2022-10-23T02:13:07.174Z,2.60
2022-10-23T02:15:39.552Z,2.70
2022-10-23T02:18:11.451Z,2.70
2022-10-23T02:23:15.057Z,2.70
2022-10-23T02:25:46.839Z,2.40
2022-10-23T02:28:19.302Z,3.23
2022-10-23T02:30:52.073Z,2.37
2022-10-23T02:33:23.869Z,2.70
2022-10-23T02:35:55.696Z,2.60
2022-10-23T02:38:28.349Z,2.87
2022-10-23T02:41:00.434Z,2.57
2022-10-23T02:43:32.497Z,2.90
2022-10-23T02:46:04.380Z,2.40
2022-10-23T02:48:36.659Z,3.13
2022-10-23T02:51:10.131Z,2.37
2022-10-23T02:53:41.923Z,2.23
2022-10-23T02:56:13.970Z,2.17
2022-10-23T02:58:47.485Z,2.67
2022-10-23T03:01:19.544Z,2.50
2022-10-23T03:03:51.567Z,2.23
2022-10-23T03:06:23.408Z,2.20
2022-10-23T03:08:55.289Z,2.50
2022-10-23T03:11:28.818Z,2.47
2022-10-23T03:14:00.624Z,2.10
2022-10-23T03:16:33.710Z,2.20
2022-10-23T03:19:05.709Z,2.17
2022-10-23T03:21:37.560Z,1.67
2022-10-23T03:24:11.111Z,2.03
2022-10-23T03:26:44.716Z,2.40
2022-10-23T03:29:16.516Z,2.17
2022-10-23T03:31:49.981Z,2.80
2022-10-23T03:34:21.802Z,2.93
2022-10-23T03:36:53.683Z,2.47
2022-10-23T03:39:25.560Z,2.40
2022-10-23T03:41:57.516Z,2.47
2022-10-23T03:44:29.343Z,2.20
2022-10-23T03:47:02.012Z,3.07
2022-10-23T03:49:33.813Z,2.30
2022-10-23T03:52:07.326Z,2.13
2022-10-23T03:54:39.321Z,2.67
2022-10-23T03:57:11.388Z,2.50
2022-10-23T03:59:43.190Z,3.03
2022-10-23T04:02:15.098Z,2.40
2022-10-23T04:04:46.883Z,2.40
2022-10-23T04:07:18.794Z,2.13
2022-10-23T04:09:52.308Z,2.20
2022-10-23T04:12:24.101Z,2.70
2022-10-23T04:14:56.179Z,2.50
2022-10-23T04:20:00.492Z,2.20
2022-10-23T04:22:32.269Z,2.50
2022-10-23T04:25:05.051Z,2.47
2022-10-23T04:27:38.301Z,3.13
2022-10-23T04:30:10.167Z,3.73
2022-10-23T04:32:43.142Z,2.40
2022-10-23T04:35:15.003Z,2.73
2022-10-23T04:37:47.072Z,2.10
2022-10-23T04:40:18.897Z,2.40
2022-10-23T04:42:51.118Z,2.43
2022-10-23T04:45:23.429Z,2.00
2022-10-23T04:47:55.288Z,2.10
2022-10-23T04:50:27.995Z,2.10
2022-10-23T04:53:10.225Z,2.13
2022-10-23T04:55:49.718Z,2.97
2022-10-23T04:58:23.230Z,2.20
2022-10-23T05:00:55.271Z,2.43
2022-10-23T05:03:28.944Z,2.47
2022-10-23T05:06:00.868Z,2.60
2022-10-23T05:08:34.397Z,2.17
2022-10-23T05:11:10.873Z,2.53
2022-10-23T05:13:47.330Z,2.10
2022-10-23T05:16:19.322Z,2.17
2022-10-23T05:18:51.145Z,2.23
2022-10-23T05:21:23.114Z,3.07
2022-10-23T05:23:55.136Z,2.70
2022-10-23T05:26:27.088Z,2.00
2022-10-23T05:28:59.007Z,2.03
2022-10-23T05:31:31.076Z,1.90
2022-10-23T05:34:04.596Z,2.03
2022-10-23T05:36:36.381Z,2.10
2022-10-23T05:39:08.212Z,1.70
2022-10-23T05:41:40.976Z,1.93
2022-10-23T05:44:12.973Z,1.77
2022-10-23T05:46:55.545Z,1.50
2022-10-23T05:49:45.621Z,1.90
2022-10-23T05:52:25.339Z,2.10
2022-10-23T05:54:58.918Z,1.80
2022-10-23T05:57:35.182Z,2.00
2022-10-23T06:00:09.035Z,1.80
2022-10-23T06:02:42.591Z,1.50
2022-10-23T06:05:22.183Z,1.90
2022-10-23T06:07:58.607Z,2.10
2022-10-23T06:10:30.505Z,2.37
2022-10-23T06:13:04.267Z,1.67
2022-10-23T06:15:36.333Z,2.20
2022-10-23T06:18:09.858Z,1.57
2022-10-23T06:20:43.728Z,1.70
2022-10-23T06:23:20.191Z,1.63
2022-10-23T06:26:10.424Z,1.70
2022-10-23T06:28:52.828Z,1.73
2022-10-23T06:31:24.729Z,1.50
2022-10-23T06:33:57.156Z,2.00
2022-10-23T06:36:29.293Z,1.40
2022-10-23T06:39:02.841Z,2.77
2022-10-23T06:41:36.449Z,1.67
2022-10-23T06:44:08.369Z,1.73
2022-10-23T06:46:47.598Z,1.57
2022-10-23T06:49:21.498Z,2.20
2022-10-23T06:51:54.593Z,1.80
2022-10-23T06:54:27.313Z,1.70
2022-10-23T06:57:12.982Z,1.87
2022-10-23T06:59:49.432Z,1.70
2022-10-23T07:02:22.311Z,1.90
2022-10-23T07:04:54.270Z,2.20
2022-10-23T07:07:26.519Z,1.80
2022-10-23T07:09:58.352Z,2.10
2022-10-23T07:12:35.111Z,1.80
2022-10-23T07:15:25.422Z,1.57
2022-10-23T07:17:57.685Z,1.77
2022-10-23T07:20:31.220Z,2.70
2022-10-23T07:23:04.212Z,1.80
2022-10-23T07:25:37.770Z,1.73
2022-10-23T07:28:10.228Z,1.80
2022-10-23T07:30:42.901Z,1.77
2022-10-23T07:33:15.540Z,1.93
2022-10-23T07:35:49.078Z,1.97
2022-10-23T07:38:22.621Z,1.63
2022-10-23T07:40:56.120Z,1.70
2022-10-23T07:43:28.207Z,1.80
2022-10-23T07:46:00.239Z,1.90
2022-10-23T07:48:36.845Z,1.70
2022-10-23T07:51:08.944Z,1.70
2022-10-23T07:53:42.532Z,1.70
2022-10-23T07:56:16.145Z,1.77
2022-10-23T07:59:05.969Z,1.97
2022-10-23T08:01:38.186Z,2.00
2022-10-23T08:04:10.217Z,1.80
2022-10-23T08:06:43.766Z,2.10
2022-10-23T08:09:15.826Z,2.00
2022-10-23T08:11:48.515Z,1.90
2022-10-23T08:14:21.449Z,1.50
2022-10-23T08:16:54.154Z,1.90
2022-10-23T08:19:27.738Z,1.60
2022-10-23T08:22:01.269Z,1.33
2022-10-23T08:24:33.293Z,1.50
2022-10-23T08:27:05.406Z,1.47
2022-10-23T08:29:38.909Z,1.60
2022-10-23T08:32:10.730Z,1.40
2022-10-23T08:34:44.366Z,1.47
2022-10-23T08:37:16.240Z,1.67
2022-10-23T08:39:50.134Z,1.73
2022-10-23T08:42:23.276Z,1.60
2022-10-23T08:44:55.396Z,1.40
2022-10-23T08:47:27.700Z,1.70
2022-10-23T08:50:03.827Z,1.60
2022-10-23T08:52:35.600Z,1.70
2022-10-23T08:55:07.552Z,1.73
2022-10-23T08:57:41.454Z,1.50
2022-10-23T09:00:12.821Z,1.60
2022-10-23T09:02:44.953Z,2.07
2022-10-23T09:05:17.058Z,1.50
2022-10-23T09:07:49.093Z,1.73
2022-10-23T09:10:21.006Z,1.43
2022-10-23T09:12:52.923Z,1.40
2022-10-23T09:15:24.739Z,1.30
2022-10-23T09:17:56.647Z,1.60
2022-10-23T09:20:28.440Z,1.40
2022-10-23T09:23:02.496Z,1.40
2022-10-23T09:25:34.482Z,1.30
2022-10-23T09:28:06.374Z,1.60
2022-10-23T09:30:38.318Z,1.97
2022-10-23T09:33:10.373Z,1.60
2022-10-23T09:35:42.239Z,1.57
2022-10-23T09:38:13.971Z,1.60
2022-10-23T09:40:45.807Z,1.13
2022-10-23T09:43:17.625Z,1.10
2022-10-23T09:45:49.518Z,1.50
2022-10-23T09:48:22.296Z,1.23
2022-10-23T09:50:54.093Z,1.37
2022-10-23T09:53:25.961Z,1.00
2022-10-23T09:55:57.776Z,1.50
2022-10-23T09:58:29.908Z,1.00
2022-10-23T10:01:01.752Z,1.30
2022-10-23T10:03:47.381Z,1.40
2022-10-23T10:06:19.338Z,1.10
2022-10-23T10:08:51.047Z,1.20
2022-10-23T10:11:22.876Z,1.17
2022-10-23T10:13:54.805Z,1.23
2022-10-23T10:16:26.639Z,1.00
2022-10-23T10:18:58.424Z,1.77
2022-10-23T10:21:30.222Z,1.33
2022-10-23T10:24:02.478Z,1.00
2022-10-23T10:26:34.312Z,1.03
2022-10-23T10:29:06.088Z,1.00
2022-10-23T10:31:37.886Z,0.90
2022-10-23T10:34:09.712Z,1.30
2022-10-23T10:36:41.503Z,1.00
2022-10-23T10:39:13.328Z,2.00
2022-10-23T10:41:45.167Z,1.23
2022-10-23T10:44:16.928Z,0.90
2022-10-23T10:46:48.741Z,1.10
2022-10-23T10:49:20.531Z,1.00
2022-10-23T10:52:00.297Z,0.90
2022-10-23T10:54:32.216Z,1.00
2022-10-23T10:57:04.051Z,1.20
2022-10-23T10:59:35.905Z,1.20
2022-10-23T11:02:08.262Z,1.17
2022-10-23T11:04:40.431Z,0.80
2022-10-23T11:07:12.182Z,0.90
2022-10-23T11:09:44.126Z,1.00
2022-10-23T11:12:15.942Z,1.20
2022-10-23T11:14:49.960Z,1.30
2022-10-23T11:17:23.521Z,0.90
2022-10-23T11:19:55.459Z,1.33
2022-10-23T11:22:27.340Z,0.93
2022-10-23T11:24:59.075Z,1.07
2022-10-23T11:27:30.903Z,1.17
2022-10-23T11:30:02.773Z,1.20
2022-10-23T11:32:34.614Z,1.67
2022-10-23T11:35:06.384Z,1.10
2022-10-23T11:37:38.213Z,0.83
2022-10-23T11:40:10.003Z,1.30
2022-10-23T11:42:42.173Z,1.23
2022-10-23T11:45:14.159Z,0.90
2022-10-23T11:47:45.952Z,0.80
2022-10-23T11:50:17.752Z,0.90
2022-10-23T11:52:50.688Z,0.77
2022-10-23T11:55:23.068Z,1.07
2022-10-23T11:57:54.843Z,0.90
2022-10-23T12:00:26.726Z,0.73
2022-10-23T12:02:59.343Z,1.47
2022-10-23T12:05:31.580Z,0.93
2022-10-23T12:08:03.467Z,0.80
2022-10-23T12:10:35.374Z,1.20
2022-10-23T12:13:07.326Z,0.77
2022-10-23T12:15:39.528Z,1.00
2022-10-23T12:18:12.090Z,0.90
2022-10-23T12:20:43.935Z,0.90
2022-10-23T12:23:15.743Z,0.83
2022-10-23T12:25:47.561Z,1.50
2022-10-23T12:28:19.388Z,1.17
2022-10-23T12:30:51.316Z,1.27
2022-10-23T12:33:23.213Z,0.80
2022-10-23T12:35:55.095Z,1.10
2022-10-23T12:38:30.169Z,2.30
2022-10-23T12:41:00.895Z,1.10
2022-10-23T12:43:32.749Z,1.07
2022-10-23T12:46:04.699Z,0.80
2022-10-23T12:48:36.435Z,0.90
2022-10-23T12:51:08.229Z,1.13
2022-10-23T12:53:40.005Z,1.03
2022-10-23T12:56:11.813Z,0.90
2022-10-23T12:58:43.608Z,1.37
2022-10-23T13:01:15.481Z,0.90
2022-10-23T13:03:47.396Z,0.80
2022-10-23T13:06:19.221Z,0.83
2022-10-23T13:08:51.135Z,1.20
2022-10-23T13:11:27.377Z,1.20
2022-10-23T13:14:00.633Z,1.07
2022-10-23T13:16:32.483Z,1.00
2022-10-23T13:19:04.314Z,1.67
2022-10-23T13:21:36.163Z,0.90
2022-10-23T13:24:08.276Z,1.10
2022-10-23T13:26:40.066Z,1.07
2022-10-23T13:29:11.924Z,1.03
2022-10-23T13:31:43.759Z,1.30
2022-10-23T13:34:15.561Z,0.80
2022-10-23T13:36:49.096Z,0.80
2022-10-23T13:39:20.786Z,0.80
2022-10-23T13:41:52.566Z,1.13
2022-10-23T13:44:24.470Z,0.97
2022-10-23T13:46:56.302Z,0.97
2022-10-23T13:49:28.065Z,1.20
2022-10-23T13:51:59.868Z,0.90
2022-10-23T13:54:31.640Z,1.00
2022-10-23T13:57:03.844Z,0.97
2022-10-23T13:59:35.618Z,1.57
2022-10-23T14:02:07.524Z,0.90
2022-10-23T14:04:39.737Z,1.03
2022-10-23T14:07:11.723Z,1.27
2022-10-23T14:09:43.493Z,0.63
2022-10-23T14:12:15.283Z,1.00
2022-10-23T14:14:47.214Z,1.00
2022-10-23T14:17:19.034Z,1.13
2022-10-23T14:19:50.833Z,1.20
2022-10-23T14:22:22.616Z,1.00
2022-10-23T14:24:54.655Z,0.90
2022-10-23T14:27:26.513Z,1.43
2022-10-23T14:29:58.378Z,1.80
2022-10-23T14:32:30.188Z,0.83
2022-10-23T14:35:02.099Z,1.03
2022-10-23T14:37:34.063Z,1.67
2022-10-23T14:40:05.835Z,1.07
2022-10-23T14:42:37.699Z,1.07
2022-10-23T14:45:09.516Z,0.90
2022-10-23T14:47:41.831Z,0.80
2022-10-23T14:50:13.848Z,1.10
2022-10-23T14:52:45.656Z,1.23
2022-10-23T14:55:17.444Z,1.83
2022-10-23T14:57:49.253Z,0.90
2022-10-23T15:00:21.043Z,1.30
2022-10-23T15:02:52.805Z,1.00
2022-10-23T15:05:24.634Z,1.50
2022-10-23T15:07:56.468Z,1.20
2022-10-23T15:10:28.248Z,2.10
2022-10-23T15:13:00.088Z,0.90
2022-10-23T15:15:31.880Z,0.90
2022-10-23T15:18:03.647Z,1.07
2022-10-23T15:20:35.426Z,1.47
2022-10-23T15:23:07.365Z,0.80
2022-10-23T15:25:39.186Z,1.80
2022-10-23T15:28:10.991Z,0.70
2022-10-23T15:30:42.879Z,1.10
2022-10-23T15:33:19.133Z,1.10
2022-10-23T15:35:48.197Z,0.93
2022-10-23T15:38:19.961Z,1.93
2022-10-23T15:40:51.781Z,0.80
2022-10-23T15:43:23.621Z,1.17
2022-10-23T15:45:55.577Z,1.20
2022-10-23T15:48:27.362Z,1.00
2022-10-23T15:50:59.156Z,0.70
2022-10-23T15:53:30.964Z,1.40
2022-10-23T15:56:02.753Z,0.90
2022-10-23T15:58:34.559Z,0.70
2022-10-23T16:01:06.582Z,1.33
2022-10-23T16:03:38.617Z,1.33
2022-10-23T16:06:10.464Z,1.03
2022-10-23T16:08:42.357Z,1.13
2022-10-23T16:11:14.188Z,0.90
2022-10-23T16:13:46.012Z,0.73
2022-10-23T16:16:17.800Z,0.90
2022-10-23T16:18:49.661Z,1.33
2022-10-23T16:21:21.490Z,1.20
2022-10-23T16:23:53.453Z,1.00
2022-10-23T16:26:25.379Z,1.23
2022-10-23T16:28:57.483Z,0.90
2022-10-23T16:31:29.328Z,0.80
2022-10-23T16:34:01.250Z,1.63
2022-10-23T16:36:33.076Z,0.87
2022-10-23T16:39:21.669Z,1.07
2022-10-23T16:41:58.035Z,1.30
2022-10-23T16:44:31.534Z,1.00
2022-10-23T16:47:05.046Z,0.67
2022-10-23T16:49:36.950Z,1.47
2022-10-23T16:52:08.809Z,1.30
2022-10-23T16:54:40.584Z,1.10
2022-10-23T16:57:12.412Z,1.20
2022-10-23T16:59:44.200Z,1.43
2022-10-23T17:02:16.212Z,0.90
2022-10-23T17:04:48.319Z,1.07
2022-10-23T17:07:20.029Z,1.10
2022-10-23T17:09:51.851Z,0.97
2022-10-23T17:12:23.637Z,0.90
2022-10-23T17:14:55.485Z,1.50
2022-10-23T17:17:27.285Z,1.10
2022-10-23T17:19:59.126Z,0.90
2022-10-23T17:22:30.959Z,0.83
2022-10-23T17:25:02.749Z,0.93
2022-10-23T17:27:34.765Z,1.00
2022-10-23T17:30:10.407Z,1.83
2022-10-23T17:32:40.033Z,1.57
2022-10-23T17:35:11.845Z,1.23
2022-10-23T17:37:43.722Z,1.00
2022-10-23T17:40:15.707Z,1.20
2022-10-23T17:42:47.541Z,1.70
2022-10-23T17:45:19.365Z,1.00
2022-10-23T17:47:51.152Z,1.40
2022-10-23T17:50:22.975Z,1.30
2022-10-23T17:52:54.796Z,1.10
2022-10-23T17:55:26.667Z,1.30
2022-10-23T17:57:58.509Z,0.90
2022-10-23T18:00:30.325Z,1.23
2022-10-23T18:03:02.169Z,1.20
2022-10-23T18:05:33.991Z,1.80
2022-10-23T18:08:05.773Z,1.07
2022-10-23T18:10:37.570Z,1.40
2022-10-23T18:13:09.370Z,1.40
2022-10-23T18:15:41.227Z,1.37
2022-10-23T18:18:13.031Z,1.47
2022-10-23T18:20:44.921Z,1.30
2022-10-23T18:23:16.748Z,1.10
2022-10-23T18:25:48.565Z,1.30
2022-10-23T18:28:20.358Z,1.40
2022-10-23T18:30:54.688Z,2.23
2022-10-23T18:33:25.695Z,1.23
2022-10-23T18:35:57.497Z,2.20
2022-10-23T18:38:29.304Z,1.03
2022-10-23T18:41:01.294Z,1.63
2022-10-23T18:43:43.406Z,1.20
2022-10-23T18:46:06.657Z,1.23
2022-10-23T18:48:38.416Z,1.00
2022-10-23T18:51:12.254Z,1.13
2022-10-23T18:53:43.682Z,1.30
2022-10-23T18:56:15.506Z,0.90
2022-10-23T18:58:47.395Z,1.70
2022-10-23T19:01:19.353Z,1.23
2022-10-23T19:03:51.447Z,1.00
2022-10-23T19:06:23.453Z,1.30
2022-10-23T19:08:55.315Z,0.93
2022-10-23T19:11:27.167Z,1.30
2022-10-23T19:13:59.077Z,1.07
2022-10-23T19:16:30.951Z,1.83
2022-10-23T19:19:02.783Z,1.07
2022-10-23T19:21:34.759Z,1.10
2022-10-23T19:24:06.619Z,1.63
2022-10-23T19:26:38.427Z,0.73
2022-10-23T19:29:10.303Z,0.83
2022-10-23T19:31:42.086Z,0.80
2022-10-23T19:34:13.930Z,0.67
2022-10-23T19:36:45.795Z,0.93
2022-10-23T19:39:17.685Z,0.70
2022-10-23T19:41:49.489Z,0.70
2022-10-23T19:44:21.332Z,0.80
2022-10-23T19:46:53.121Z,0.57
2022-10-23T19:49:25.130Z,1.10
2022-10-23T19:51:56.958Z,2.63
2022-10-23T19:54:28.969Z,1.03
2022-10-23T19:57:00.917Z,1.00
2022-10-23T19:59:32.698Z,0.90
2022-10-23T20:02:04.609Z,0.80
2022-10-23T20:04:36.570Z,0.50
2022-10-23T20:07:08.372Z,1.50
2022-10-23T20:09:40.168Z,0.70
2022-10-23T20:12:12.142Z,1.30
2022-10-23T20:14:44.053Z,0.80
2022-10-23T20:17:15.837Z,0.70
2022-10-23T20:19:47.673Z,0.80
2022-10-23T20:22:19.475Z,0.60
2022-10-23T20:24:51.391Z,0.60
2022-10-23T20:27:23.232Z,0.60
2022-10-23T20:29:55.067Z,1.00
2022-10-23T20:32:26.929Z,0.80
2022-10-23T20:34:58.942Z,0.87
2022-10-23T20:37:30.752Z,1.03
2022-10-23T20:40:02.576Z,0.80
2022-10-23T20:42:34.427Z,0.80
2022-10-23T20:45:06.310Z,0.97
2022-10-23T20:47:38.109Z,0.80
2022-10-23T20:50:09.930Z,1.20
2022-10-23T20:52:41.781Z,1.20
2022-10-23T20:55:13.607Z,0.60
2022-10-23T20:57:45.985Z,0.87
2022-10-23T21:00:17.943Z,0.60
2022-10-23T21:02:52.080Z,0.87
2022-10-23T21:05:23.251Z,0.60
2022-10-23T21:07:55.095Z,0.77
2022-10-23T21:10:26.980Z,0.50
2022-10-23T21:12:59.004Z,0.60
2022-10-23T21:15:30.876Z,0.30
2022-10-23T21:18:13.080Z,0.50
2022-10-23T21:20:36.131Z,0.43
2022-10-23T21:23:08.089Z,0.40
2022-10-23T21:25:39.992Z,0.50
2022-10-23T21:28:12.047Z,0.30
2022-10-23T21:30:44.091Z,0.30
2022-10-23T21:33:15.864Z,0.60
2022-10-23T21:35:57.903Z,0.67
2022-10-23T21:38:21.083Z,0.20
2022-10-23T21:40:52.947Z,0.30
2022-10-23T21:43:24.825Z,0.30
2022-10-23T21:45:58.803Z,0.30
2022-10-23T21:48:30.191Z,0.20
2022-10-23T21:51:01.958Z,0.37
2022-10-23T21:53:33.990Z,0.37
2022-10-23T21:56:05.817Z,0.30
2022-10-23T21:58:37.728Z,0.47
2022-10-23T22:01:09.715Z,0.40
2022-10-23T22:03:41.707Z,0.83
2022-10-23T22:06:14.009Z,0.30
2022-10-23T22:08:45.873Z,0.63
2022-10-23T22:11:17.665Z,0.80
2022-10-23T22:13:49.479Z,2.00
2022-10-23T22:16:21.477Z,0.70
2022-10-23T22:18:53.276Z,0.53
2022-10-23T22:21:25.105Z,0.50
2022-10-23T22:23:56.955Z,0.63
2022-10-23T22:26:28.914Z,0.33
2022-10-23T22:29:00.877Z,0.30
2022-10-23T22:31:32.684Z,0.30
2022-10-23T22:34:13.282Z,0.50
2022-10-23T22:36:38.105Z,0.50
2022-10-23T22:39:09.881Z,0.30
2022-10-23T22:41:41.686Z,0.97
2022-10-23T22:44:13.463Z,0.40
2022-10-23T22:46:45.394Z,0.67
2022-10-23T22:49:17.231Z,0.50
2022-10-23T22:51:49.082Z,0.27
2022-10-23T22:54:20.979Z,0.40
2022-10-23T22:56:53.110Z,0.40
2022-10-23T22:59:24.922Z,0.50
2022-10-23T23:01:56.745Z,0.30
2022-10-23T23:04:43.813Z,0.70
2022-10-23T23:07:02.079Z,0.77
2022-10-23T23:09:33.888Z,0.67
2022-10-23T23:12:05.700Z,0.50
2022-10-23T23:14:37.536Z,0.70
2022-10-23T23:17:09.342Z,0.40
2022-10-23T23:19:41.182Z,1.00
2022-10-23T23:22:12.983Z,0.60
2022-10-23T23:24:44.800Z,0.60
2022-10-23T23:27:16.613Z,0.60
2022-10-23T23:29:48.428Z,0.60
2022-10-23T23:32:20.253Z,1.10
2022-10-23T23:34:51.987Z,0.80
2022-10-23T23:37:23.907Z,0.43
2022-10-23T23:39:55.688Z,1.10
2022-10-23T23:42:28.092Z,0.70
2022-10-23T23:45:10.108Z,0.93
2022-10-23T23:50:32.471Z,0.80
2022-10-23T23:53:04.266Z,1.10
2022-10-23T23:55:36.066Z,0.50
2022-10-23T23:58:07.983Z,0.70
